Terminal Aerodrome Forecast
Issued by NWS Topeka, KS

Home | Current Version | Previous Version | Text Only | Print | Product List | Glossary On
Versions: 1 2 3 4 5 6 7 8 9 10 11 12
776
FTUS43 KTOP 110529
TAFTOP
TAF
KTOP 110529Z 1106/1206 14009KT P6SM OVC150
     FM110800 16011KT 6SM BR OVC014
      TEMPO 1112/1116 4SM -DZ OVC008
     FM111700 25007KT P6SM OVC018
     FM112200 33012KT P6SM SCT035 BKN100
     FM120100 33007KT P6SM SCT200=

USA.gov is the U.S. government's official web portal to all federal, state and local government web resources and services.